sensor_id;sensor_type;location;lat;lon;timestamp;P1;durP1;ratioP1;P2;durP2;ratioP2
64500;SDS011;50874;24.150;-110.320;2022-09-09T00:01:43;8.10;;;2.15;;
64500;SDS011;50874;24.150;-110.320;2022-09-09T00:04:32;11.98;;;2.30;;
64500;SDS011;50874;24.150;-110.320;2022-09-09T00:07:05;5.35;;;1.73;;
64500;SDS011;50874;24.150;-110.320;2022-09-09T00:09:47;12.30;;;2.03;;
64500;SDS011;50874;24.150;-110.320;2022-09-09T00:15:05;10.32;;;1.90;;
64500;SDS011;50874;24.150;-110.320;2022-09-09T00:17:39;11.85;;;2.75;;
64500;SDS011;50874;24.150;-110.320;2022-09-09T00:20:49;6.97;;;2.38;;
64500;SDS011;50874;24.150;-110.320;2022-09-09T00:25:53;9.80;;;2.42;;
64500;SDS011;50874;24.150;-110.320;2022-09-09T00:28:38;14.73;;;2.58;;
64500;SDS011;50874;24.150;-110.320;2022-09-09T00:31:28;10.00;;;2.70;;
64500;SDS011;50874;24.150;-110.320;2022-09-09T00:34:02;5.72;;;1.60;;
64500;SDS011;50874;24.150;-110.320;2022-09-09T00:36:42;7.47;;;1.80;;
64500;SDS011;50874;24.150;-110.320;2022-09-09T00:39:32;9.82;;;2.45;;
64500;SDS011;50874;24.150;-110.320;2022-09-09T00:42:13;10.73;;;2.58;;
64500;SDS011;50874;24.150;-110.320;2022-09-09T00:56:08;13.15;;;2.45;;
64500;SDS011;50874;24.150;-110.320;2022-09-09T00:58:42;7.97;;;1.92;;
64500;SDS011;50874;24.150;-110.320;2022-09-09T01:01:15;4.00;;;1.83;;
64500;SDS011;50874;24.150;-110.320;2022-09-09T01:11:27;11.40;;;2.03;;
64500;SDS011;50874;24.150;-110.320;2022-09-09T01:17:08;14.65;;;2.90;;
64500;SDS011;50874;24.150;-110.320;2022-09-09T01:27:39;10.70;;;2.72;;
64500;SDS011;50874;24.150;-110.320;2022-09-09T01:30:11;12.18;;;3.08;;
64500;SDS011;50874;24.150;-110.320;2022-09-09T01:35:19;7.93;;;2.13;;
64500;SDS011;50874;24.150;-110.320;2022-09-09T01:37:51;8.63;;;2.40;;
64500;SDS011;50874;24.150;-110.320;2022-09-09T01:40:18;7.22;;;2.05;;
64500;SDS011;50874;24.150;-110.320;2022-09-09T01:42:44;12.20;;;2.95;;
64500;SDS011;50874;24.150;-110.320;2022-09-09T01:45:11;11.15;;;2.33;;
64500;SDS011;50874;24.150;-110.320;2022-09-09T01:47:37;12.68;;;2.80;;
64500;SDS011;50874;24.150;-110.320;2022-09-09T01:50:04;9.32;;;2.55;;
64500;SDS011;50874;24.150;-110.320;2022-09-09T01:52:33;8.45;;;2.22;;
64500;SDS011;50874;24.150;-110.320;2022-09-09T01:55:02;9.30;;;3.38;;
64500;SDS011;50874;24.150;-110.320;2022-09-09T02:05:17;16.42;;;3.97;;
64500;SDS011;50874;24.150;-110.320;2022-09-09T02:08:00;16.75;;;4.20;;
64500;SDS011;50874;24.150;-110.320;2022-09-09T02:13:57;10.65;;;3.40;;
64500;SDS011;50874;24.150;-110.320;2022-09-09T02:21:23;11.35;;;2.40;;
64500;SDS011;50874;24.150;-110.320;2022-09-09T02:23:50;15.20;;;2.63;;
64500;SDS011;50874;24.150;-110.320;2022-09-09T02:26:19;8.55;;;2.67;;
64500;SDS011;50874;24.150;-110.320;2022-09-09T02:28:49;16.65;;;2.88;;
64500;SDS011;50874;24.150;-110.320;2022-09-09T02:31:18;7.95;;;2.40;;
64500;SDS011;50874;24.150;-110.320;2022-09-09T02:33:55;9.25;;;3.53;;
64500;SDS011;50874;24.150;-110.320;2022-09-09T02:36:26;12.80;;;3.40;;
64500;SDS011;50874;24.150;-110.320;2022-09-09T02:38:58;11.05;;;3.00;;
64500;SDS011;50874;24.150;-110.320;2022-09-09T02:41:27;8.68;;;2.88;;
64500;SDS011;50874;24.150;-110.320;2022-09-09T02:43:57;12.20;;;3.88;;
64500;SDS011;50874;24.150;-110.320;2022-09-09T02:46:32;9.77;;;3.25;;
64500;SDS011;50874;24.150;-110.320;2022-09-09T02:49:09;10.48;;;2.92;;
64500;SDS011;50874;24.150;-110.320;2022-09-09T02:52:00;12.40;;;2.60;;
64500;SDS011;50874;24.150;-110.320;2022-09-09T02:54:32;15.05;;;2.50;;
64500;SDS011;50874;24.150;-110.320;2022-09-09T02:57:22;11.05;;;2.85;;
64500;SDS011;50874;24.150;-110.320;2022-09-09T02:59:56;14.23;;;2.75;;
64500;SDS011;50874;24.150;-110.320;2022-09-09T03:02:24;11.73;;;2.25;;
64500;SDS011;50874;24.150;-110.320;2022-09-09T03:04:50;8.98;;;3.17;;
64500;SDS011;50874;24.150;-110.320;2022-09-09T03:07:18;15.55;;;3.08;;
64500;SDS011;50874;24.150;-110.320;2022-09-09T03:09:45;8.88;;;3.20;;
64500;SDS011;50874;24.150;-110.320;2022-09-09T03:12:11;21.63;;;4.97;;
64500;SDS011;50874;24.150;-110.320;2022-09-09T03:14:38;9.23;;;2.75;;
64500;SDS011;50874;24.150;-110.320;2022-09-09T03:17:05;7.25;;;2.20;;
64500;SDS011;50874;24.150;-110.320;2022-09-09T03:19:32;10.90;;;2.58;;
64500;SDS011;50874;24.150;-110.320;2022-09-09T03:22:00;8.27;;;2.33;;
64500;SDS011;50874;24.150;-110.320;2022-09-09T03:24:26;16.25;;;3.95;;
64500;SDS011;50874;24.150;-110.320;2022-09-09T03:26:53;9.45;;;2.85;;
64500;SDS011;50874;24.150;-110.320;2022-09-09T03:29:21;6.95;;;2.75;;
64500;SDS011;50874;24.150;-110.320;2022-09-09T03:31:47;10.15;;;2.38;;
64500;SDS011;50874;24.150;-110.320;2022-09-09T03:34:14;10.63;;;2.28;;
64500;SDS011;50874;24.150;-110.320;2022-09-09T03:36:40;7.78;;;2.08;;
64500;SDS011;50874;24.150;-110.320;2022-09-09T03:39:06;10.35;;;2.55;;
64500;SDS011;50874;24.150;-110.320;2022-09-09T03:41:33;9.55;;;2.25;;
64500;SDS011;50874;24.150;-110.320;2022-09-09T03:43:59;14.02;;;2.45;;
64500;SDS011;50874;24.150;-110.320;2022-09-09T03:46:26;9.55;;;2.63;;
64500;SDS011;50874;24.150;-110.320;2022-09-09T03:48:52;9.77;;;2.42;;
64500;SDS011;50874;24.150;-110.320;2022-09-09T03:51:19;10.27;;;3.20;;
64500;SDS011;50874;24.150;-110.320;2022-09-09T03:53:47;9.20;;;2.65;;
64500;SDS011;50874;24.150;-110.320;2022-09-09T03:56:13;9.88;;;2.70;;
64500;SDS011;50874;24.150;-110.320;2022-09-09T03:58:40;13.82;;;3.58;;
64500;SDS011;50874;24.150;-110.320;2022-09-09T04:01:07;9.15;;;3.13;;
64500;SDS011;50874;24.150;-110.320;2022-09-09T04:03:36;12.70;;;3.22;;
64500;SDS011;50874;24.150;-110.320;2022-09-09T04:06:03;9.30;;;2.95;;
64500;SDS011;50874;24.150;-110.320;2022-09-09T04:08:32;8.07;;;2.33;;
64500;SDS011;50874;24.150;-110.320;2022-09-09T04:10:58;14.57;;;2.88;;
64500;SDS011;50874;24.150;-110.320;2022-09-09T04:13:26;12.00;;;2.33;;
64500;SDS011;50874;24.150;-110.320;2022-09-09T04:15:57;10.73;;;2.33;;
64500;SDS011;50874;24.150;-110.320;2022-09-09T04:18:25;14.68;;;2.90;;
64500;SDS011;50874;24.150;-110.320;2022-09-09T04:20:54;14.95;;;3.17;;
64500;SDS011;50874;24.150;-110.320;2022-09-09T04:23:23;16.02;;;4.22;;
64500;SDS011;50874;24.150;-110.320;2022-09-09T04:25:54;9.95;;;3.53;;
64500;SDS011;50874;24.150;-110.320;2022-09-09T04:28:22;7.45;;;2.42;;
64500;SDS011;50874;24.150;-110.320;2022-09-09T04:30:49;12.55;;;3.13;;
64500;SDS011;50874;24.150;-110.320;2022-09-09T04:33:17;12.95;;;2.70;;
64500;SDS011;50874;24.150;-110.320;2022-09-09T04:35:45;13.23;;;3.33;;
64500;SDS011;50874;24.150;-110.320;2022-09-09T04:38:13;16.13;;;2.85;;
64500;SDS011;50874;24.150;-110.320;2022-09-09T04:40:42;12.88;;;2.88;;
64500;SDS011;50874;24.150;-110.320;2022-09-09T04:43:12;11.93;;;3.50;;
64500;SDS011;50874;24.150;-110.320;2022-09-09T04:45:40;9.00;;;3.13;;
64500;SDS011;50874;24.150;-110.320;2022-09-09T04:48:08;9.38;;;2.33;;
64500;SDS011;50874;24.150;-110.320;2022-09-09T04:50:37;12.70;;;2.85;;
64500;SDS011;50874;24.150;-110.320;2022-09-09T04:53:04;9.68;;;3.22;;
64500;SDS011;50874;24.150;-110.320;2022-09-09T04:55:31;10.02;;;2.88;;
64500;SDS011;50874;24.150;-110.320;2022-09-09T04:58:02;9.65;;;2.97;;
64500;SDS011;50874;24.150;-110.320;2022-09-09T05:00:30;14.63;;;3.53;;
64500;SDS011;50874;24.150;-110.320;2022-09-09T05:02:57;10.45;;;2.72;;
64500;SDS011;50874;24.150;-110.320;2022-09-09T05:05:23;8.02;;;2.45;;
64500;SDS011;50874;24.150;-110.320;2022-09-09T05:07:50;9.82;;;2.78;;
64500;SDS011;50874;24.150;-110.320;2022-09-09T05:10:17;8.75;;;2.83;;
64500;SDS011;50874;24.150;-110.320;2022-09-09T05:12:51;10.65;;;2.67;;
64500;SDS011;50874;24.150;-110.320;2022-09-09T05:15:18;12.70;;;2.45;;
64500;SDS011;50874;24.150;-110.320;2022-09-09T05:17:46;14.77;;;2.60;;
64500;SDS011;50874;24.150;-110.320;2022-09-09T05:20:12;10.70;;;2.80;;
64500;SDS011;50874;24.150;-110.320;2022-09-09T05:22:39;16.33;;;4.10;;
64500;SDS011;50874;24.150;-110.320;2022-09-09T05:25:06;12.40;;;3.10;;
64500;SDS011;50874;24.150;-110.320;2022-09-09T05:27:35;8.75;;;2.75;;
64500;SDS011;50874;24.150;-110.320;2022-09-09T05:30:02;8.75;;;1.98;;
64500;SDS011;50874;24.150;-110.320;2022-09-09T05:32:30;16.10;;;3.40;;
64500;SDS011;50874;24.150;-110.320;2022-09-09T05:34:59;15.00;;;3.78;;
64500;SDS011;50874;24.150;-110.320;2022-09-09T05:37:26;14.02;;;3.45;;
64500;SDS011;50874;24.150;-110.320;2022-09-09T05:39:54;10.75;;;2.88;;
64500;SDS011;50874;24.150;-110.320;2022-09-09T05:42:20;15.57;;;2.80;;
64500;SDS011;50874;24.150;-110.320;2022-09-09T05:44:47;8.57;;;2.70;;
64500;SDS011;50874;24.150;-110.320;2022-09-09T05:47:13;12.85;;;3.22;;
64500;SDS011;50874;24.150;-110.320;2022-09-09T05:49:40;10.73;;;3.00;;
64500;SDS011;50874;24.150;-110.320;2022-09-09T05:52:06;12.25;;;2.80;;
64500;SDS011;50874;24.150;-110.320;2022-09-09T05:54:34;12.23;;;2.35;;
64500;SDS011;50874;24.150;-110.320;2022-09-09T05:57:02;13.32;;;3.40;;
64500;SDS011;50874;24.150;-110.320;2022-09-09T05:59:29;16.25;;;2.67;;
64500;SDS011;50874;24.150;-110.320;2022-09-09T06:01:57;12.85;;;3.47;;
64500;SDS011;50874;24.150;-110.320;2022-09-09T06:04:24;7.22;;;2.58;;
64500;SDS011;50874;24.150;-110.320;2022-09-09T06:06:50;7.80;;;2.60;;
64500;SDS011;50874;24.150;-110.320;2022-09-09T06:09:17;13.70;;;2.97;;
64500;SDS011;50874;24.150;-110.320;2022-09-09T06:11:43;10.73;;;2.05;;
64500;SDS011;50874;24.150;-110.320;2022-09-09T06:14:10;10.73;;;3.15;;
64500;SDS011;50874;24.150;-110.320;2022-09-09T06:16:37;8.38;;;2.38;;
64500;SDS011;50874;24.150;-110.320;2022-09-09T06:19:03;10.23;;;2.67;;
64500;SDS011;50874;24.150;-110.320;2022-09-09T06:21:31;11.48;;;2.80;;
64500;SDS011;50874;24.150;-110.320;2022-09-09T06:24:05;9.68;;;2.67;;
64500;SDS011;50874;24.150;-110.320;2022-09-09T06:26:33;14.77;;;3.00;;
64500;SDS011;50874;24.150;-110.320;2022-09-09T06:29:02;10.02;;;3.00;;
64500;SDS011;50874;24.150;-110.320;2022-09-09T06:31:30;9.63;;;2.67;;
64500;SDS011;50874;24.150;-110.320;2022-09-09T06:33:59;13.95;;;2.60;;
64500;SDS011;50874;24.150;-110.320;2022-09-09T06:36:27;13.90;;;3.60;;
64500;SDS011;50874;24.150;-110.320;2022-09-09T06:38:55;11.43;;;3.40;;
64500;SDS011;50874;24.150;-110.320;2022-09-09T06:41:22;14.55;;;3.05;;
64500;SDS011;50874;24.150;-110.320;2022-09-09T06:43:51;12.35;;;2.47;;
64500;SDS011;50874;24.150;-110.320;2022-09-09T06:46:19;20.88;;;4.45;;
64500;SDS011;50874;24.150;-110.320;2022-09-09T06:48:47;5.68;;;2.30;;
64500;SDS011;50874;24.150;-110.320;2022-09-09T06:51:15;9.93;;;2.30;;
64500;SDS011;50874;24.150;-110.320;2022-09-09T06:53:44;9.10;;;2.55;;
64500;SDS011;50874;24.150;-110.320;2022-09-09T06:56:19;16.48;;;2.75;;
64500;SDS011;50874;24.150;-110.320;2022-09-09T06:58:48;11.40;;;3.15;;
64500;SDS011;50874;24.150;-110.320;2022-09-09T07:01:18;9.85;;;2.63;;
64500;SDS011;50874;24.150;-110.320;2022-09-09T07:03:47;11.50;;;2.70;;
64500;SDS011;50874;24.150;-110.320;2022-09-09T07:06:22;12.43;;;2.38;;
64500;SDS011;50874;24.150;-110.320;2022-09-09T07:08:51;10.43;;;2.40;;
64500;SDS011;50874;24.150;-110.320;2022-09-09T07:11:22;9.00;;;2.95;;
64500;SDS011;50874;24.150;-110.320;2022-09-09T07:13:51;10.48;;;2.30;;
64500;SDS011;50874;24.150;-110.320;2022-09-09T07:16:18;9.93;;;3.17;;
64500;SDS011;50874;24.150;-110.320;2022-09-09T07:18:46;14.50;;;3.13;;
64500;SDS011;50874;24.150;-110.320;2022-09-09T07:21:13;11.68;;;2.65;;
64500;SDS011;50874;24.150;-110.320;2022-09-09T07:23:40;10.45;;;2.33;;
64500;SDS011;50874;24.150;-110.320;2022-09-09T07:26:08;14.77;;;3.10;;
64500;SDS011;50874;24.150;-110.320;2022-09-09T07:28:39;10.30;;;2.90;;
64500;SDS011;50874;24.150;-110.320;2022-09-09T07:31:07;9.95;;;2.40;;
64500;SDS011;50874;24.150;-110.320;2022-09-09T07:33:56;11.45;;;3.30;;
64500;SDS011;50874;24.150;-110.320;2022-09-09T07:36:25;8.85;;;2.47;;
64500;SDS011;50874;24.150;-110.320;2022-09-09T07:38:56;12.38;;;2.30;;
64500;SDS011;50874;24.150;-110.320;2022-09-09T07:41:26;10.45;;;2.22;;
64500;SDS011;50874;24.150;-110.320;2022-09-09T07:43:55;10.32;;;2.60;;
64500;SDS011;50874;24.150;-110.320;2022-09-09T07:46:22;9.27;;;2.30;;
64500;SDS011;50874;24.150;-110.320;2022-09-09T07:48:54;11.27;;;2.65;;
64500;SDS011;50874;24.150;-110.320;2022-09-09T07:51:25;14.57;;;3.05;;
64500;SDS011;50874;24.150;-110.320;2022-09-09T07:54:01;14.27;;;3.22;;
64500;SDS011;50874;24.150;-110.320;2022-09-09T07:56:29;12.73;;;3.20;;
64500;SDS011;50874;24.150;-110.320;2022-09-09T07:58:57;15.02;;;2.60;;
64500;SDS011;50874;24.150;-110.320;2022-09-09T08:01:25;6.88;;;2.33;;
64500;SDS011;50874;24.150;-110.320;2022-09-09T08:04:00;9.13;;;2.63;;
64500;SDS011;50874;24.150;-110.320;2022-09-09T08:06:29;16.98;;;3.08;;
64500;SDS011;50874;24.150;-110.320;2022-09-09T08:08:58;7.70;;;2.17;;
64500;SDS011;50874;24.150;-110.320;2022-09-09T08:11:25;11.70;;;2.30;;
64500;SDS011;50874;24.150;-110.320;2022-09-09T08:13:53;11.82;;;2.30;;
64500;SDS011;50874;24.150;-110.320;2022-09-09T08:16:22;9.00;;;2.90;;
64500;SDS011;50874;24.150;-110.320;2022-09-09T08:18:50;12.55;;;2.60;;
64500;SDS011;50874;24.150;-110.320;2022-09-09T08:21:20;11.60;;;3.22;;
64500;SDS011;50874;24.150;-110.320;2022-09-09T08:23:49;10.52;;;2.42;;
64500;SDS011;50874;24.150;-110.320;2022-09-09T08:26:18;10.27;;;2.53;;
64500;SDS011;50874;24.150;-110.320;2022-09-09T08:28:48;16.75;;;2.50;;
64500;SDS011;50874;24.150;-110.320;2022-09-09T08:31:37;16.90;;;2.40;;
64500;SDS011;50874;24.150;-110.320;2022-09-09T08:34:08;10.32;;;2.17;;
64500;SDS011;50874;24.150;-110.320;2022-09-09T08:36:36;6.93;;;1.90;;
64500;SDS011;50874;24.150;-110.320;2022-09-09T08:39:06;7.55;;;2.30;;
64500;SDS011;50874;24.150;-110.320;2022-09-09T08:52:31;7.40;;;2.63;;
64500;SDS011;50874;24.150;-110.320;2022-09-09T08:57:57;9.73;;;1.88;;
64500;SDS011;50874;24.150;-110.320;2022-09-09T09:00:48;6.45;;;1.92;;
64500;SDS011;50874;24.150;-110.320;2022-09-09T09:11:56;9.55;;;2.45;;
64500;SDS011;50874;24.150;-110.320;2022-09-09T09:14:27;11.73;;;2.03;;
64500;SDS011;50874;24.150;-110.320;2022-09-09T09:17:00;13.50;;;2.47;;
64500;SDS011;50874;24.150;-110.320;2022-09-09T09:19:32;7.25;;;1.58;;
64500;SDS011;50874;24.150;-110.320;2022-09-09T09:30:13;8.05;;;2.08;;
64500;SDS011;50874;24.150;-110.320;2022-09-09T09:32:55;10.50;;;2.17;;
64500;SDS011;50874;24.150;-110.320;2022-09-09T09:35:28;10.90;;;2.33;;
64500;SDS011;50874;24.150;-110.320;2022-09-09T09:37:54;9.68;;;2.03;;
64500;SDS011;50874;24.150;-110.320;2022-09-09T09:40:21;10.98;;;2.35;;
64500;SDS011;50874;24.150;-110.320;2022-09-09T09:42:52;8.95;;;2.38;;
64500;SDS011;50874;24.150;-110.320;2022-09-09T09:45:26;8.48;;;1.92;;
64500;SDS011;50874;24.150;-110.320;2022-09-09T09:48:03;8.32;;;1.90;;
64500;SDS011;50874;24.150;-110.320;2022-09-09T09:50:32;13.38;;;2.28;;
64500;SDS011;50874;24.150;-110.320;2022-09-09T09:52:59;5.57;;;1.90;;
64500;SDS011;50874;24.150;-110.320;2022-09-09T09:55:30;10.48;;;2.40;;
64500;SDS011;50874;24.150;-110.320;2022-09-09T09:58:03;12.82;;;3.17;;
64500;SDS011;50874;24.150;-110.320;2022-09-09T10:00:31;15.13;;;2.67;;
64500;SDS011;50874;24.150;-110.320;2022-09-09T10:03:00;10.35;;;1.83;;
64500;SDS011;50874;24.150;-110.320;2022-09-09T10:05:28;6.72;;;2.08;;
64500;SDS011;50874;24.150;-110.320;2022-09-09T10:08:00;9.45;;;2.88;;
64500;SDS011;50874;24.150;-110.320;2022-09-09T10:10:34;7.22;;;2.25;;
64500;SDS011;50874;24.150;-110.320;2022-09-09T10:13:19;4.85;;;2.00;;
64500;SDS011;50874;24.150;-110.320;2022-09-09T10:24:04;8.57;;;3.38;;
64500;SDS011;50874;24.150;-110.320;2022-09-09T10:34:46;12.07;;;2.55;;
64500;SDS011;50874;24.150;-110.320;2022-09-09T10:37:46;6.93;;;1.92;;
64500;SDS011;50874;24.150;-110.320;2022-09-09T10:46:09;10.48;;;1.77;;
64500;SDS011;50874;24.150;-110.320;2022-09-09T10:57:22;8.95;;;2.05;;
64500;SDS011;50874;24.150;-110.320;2022-09-09T11:00:06;3.10;;;1.27;;
64500;SDS011;50874;24.150;-110.320;2022-09-09T11:02:42;7.00;;;1.80;;
64500;SDS011;50874;24.150;-110.320;2022-09-09T11:05:31;12.30;;;2.97;;
64500;SDS011;50874;24.150;-110.320;2022-09-09T11:07:59;8.48;;;2.03;;
64500;SDS011;50874;24.150;-110.320;2022-09-09T11:16:29;7.25;;;1.52;;
64500;SDS011;50874;24.150;-110.320;2022-09-09T11:21:45;9.60;;;2.15;;
64500;SDS011;50874;24.150;-110.320;2022-09-09T11:24:18;13.27;;;2.38;;
64500;SDS011;50874;24.150;-110.320;2022-09-09T11:26:51;7.70;;;2.10;;
64500;SDS011;50874;24.150;-110.320;2022-09-09T11:29:43;10.15;;;2.78;;
64500;SDS011;50874;24.150;-110.320;2022-09-09T11:34:53;9.82;;;1.88;;
64500;SDS011;50874;24.150;-110.320;2022-09-09T11:40:34;8.73;;;2.88;;
64500;SDS011;50874;24.150;-110.320;2022-09-09T11:43:05;8.25;;;2.00;;
64500;SDS011;50874;24.150;-110.320;2022-09-09T11:45:34;11.10;;;1.70;;
64500;SDS011;50874;24.150;-110.320;2022-09-09T11:48:03;12.77;;;2.30;;
64500;SDS011;50874;24.150;-110.320;2022-09-09T11:50:32;15.00;;;2.60;;
64500;SDS011;50874;24.150;-110.320;2022-09-09T11:53:20;9.13;;;2.10;;
64500;SDS011;50874;24.150;-110.320;2022-09-09T11:55:48;9.20;;;1.95;;
64500;SDS011;50874;24.150;-110.320;2022-09-09T11:58:32;11.10;;;2.70;;
64500;SDS011;50874;24.150;-110.320;2022-09-09T12:01:12;9.23;;;1.85;;
64500;SDS011;50874;24.150;-110.320;2022-09-09T12:03:55;10.48;;;1.90;;
64500;SDS011;50874;24.150;-110.320;2022-09-09T12:06:48;9.07;;;3.08;;
64500;SDS011;50874;24.150;-110.320;2022-09-09T12:09:33;7.00;;;1.60;;
64500;SDS011;50874;24.150;-110.320;2022-09-09T12:14:43;10.52;;;2.03;;
64500;SDS011;50874;24.150;-110.320;2022-09-09T12:17:31;5.70;;;1.70;;
64500;SDS011;50874;24.150;-110.320;2022-09-09T12:20:15;7.90;;;2.22;;
64500;SDS011;50874;24.150;-110.320;2022-09-09T12:33:47;6.53;;;2.05;;
64500;SDS011;50874;24.150;-110.320;2022-09-09T12:36:17;5.65;;;1.63;;
64500;SDS011;50874;24.150;-110.320;2022-09-09T12:38:50;10.63;;;1.92;;
64500;SDS011;50874;24.150;-110.320;2022-09-09T12:46:32;12.07;;;2.97;;
64500;SDS011;50874;24.150;-110.320;2022-09-09T12:52:06;5.72;;;2.03;;
64500;SDS011;50874;24.150;-110.320;2022-09-09T12:54:55;5.40;;;1.60;;
64500;SDS011;50874;24.150;-110.320;2022-09-09T12:57:23;9.23;;;1.95;;
64500;SDS011;50874;24.150;-110.320;2022-09-09T12:59:51;6.40;;;1.60;;
64500;SDS011;50874;24.150;-110.320;2022-09-09T13:02:30;6.90;;;1.92;;
64500;SDS011;50874;24.150;-110.320;2022-09-09T13:05:06;9.85;;;1.50;;
64500;SDS011;50874;24.150;-110.320;2022-09-09T13:08:00;5.05;;;2.15;;
64500;SDS011;50874;24.150;-110.320;2022-09-09T13:10:28;4.50;;;1.70;;
64500;SDS011;50874;24.150;-110.320;2022-09-09T13:12:59;13.05;;;2.20;;
64500;SDS011;50874;24.150;-110.320;2022-09-09T13:15:26;2.60;;;1.10;;
64500;SDS011;50874;24.150;-110.320;2022-09-09T13:17:56;6.68;;;1.50;;
64500;SDS011;50874;24.150;-110.320;2022-09-09T13:20:26;10.23;;;1.77;;
64500;SDS011;50874;24.150;-110.320;2022-09-09T13:22:53;8.38;;;1.58;;
64500;SDS011;50874;24.150;-110.320;2022-09-09T13:25:25;8.65;;;1.63;;
64500;SDS011;50874;24.150;-110.320;2022-09-09T13:28:04;5.32;;;1.50;;
64500;SDS011;50874;24.150;-110.320;2022-09-09T13:30:31;5.63;;;1.20;;
64500;SDS011;50874;24.150;-110.320;2022-09-09T13:33:06;3.42;;;1.30;;
64500;SDS011;50874;24.150;-110.320;2022-09-09T13:38:21;6.03;;;1.48;;
64500;SDS011;50874;24.150;-110.320;2022-09-09T13:41:06;8.15;;;1.73;;
64500;SDS011;50874;24.150;-110.320;2022-09-09T13:43:36;7.22;;;1.60;;
64500;SDS011;50874;24.150;-110.320;2022-09-09T13:48:56;3.47;;;1.20;;
64500;SDS011;50874;24.150;-110.320;2022-09-09T13:51:45;6.40;;;1.52;;
64500;SDS011;50874;24.150;-110.320;2022-09-09T13:54:16;11.45;;;2.33;;
64500;SDS011;50874;24.150;-110.320;2022-09-09T13:56:45;4.78;;;1.30;;
64500;SDS011;50874;24.150;-110.320;2022-09-09T13:59:13;7.47;;;1.40;;
64500;SDS011;50874;24.150;-110.320;2022-09-09T14:01:40;7.38;;;2.08;;
64500;SDS011;50874;24.150;-110.320;2022-09-09T14:04:07;4.00;;;1.23;;
64500;SDS011;50874;24.150;-110.320;2022-09-09T14:06:34;5.22;;;1.63;;
64500;SDS011;50874;24.150;-110.320;2022-09-09T14:09:05;8.48;;;1.67;;
64500;SDS011;50874;24.150;-110.320;2022-09-09T14:11:32;5.05;;;1.60;;
64500;SDS011;50874;24.150;-110.320;2022-09-09T14:13:59;7.88;;;1.45;;
64500;SDS011;50874;24.150;-110.320;2022-09-09T14:16:26;6.55;;;1.33;;
64500;SDS011;50874;24.150;-110.320;2022-09-09T14:18:53;5.75;;;1.27;;
64500;SDS011;50874;24.150;-110.320;2022-09-09T14:21:21;4.18;;;1.33;;
64500;SDS011;50874;24.150;-110.320;2022-09-09T14:23:48;6.93;;;1.70;;
64500;SDS011;50874;24.150;-110.320;2022-09-09T14:26:14;5.38;;;1.30;;
64500;SDS011;50874;24.150;-110.320;2022-09-09T14:28:41;6.50;;;1.48;;
64500;SDS011;50874;24.150;-110.320;2022-09-09T14:31:07;7.30;;;2.05;;
64500;SDS011;50874;24.150;-110.320;2022-09-09T14:33:35;5.90;;;1.55;;
64500;SDS011;50874;24.150;-110.320;2022-09-09T14:36:03;6.30;;;1.30;;
64500;SDS011;50874;24.150;-110.320;2022-09-09T14:38:30;9.38;;;1.23;;
64500;SDS011;50874;24.150;-110.320;2022-09-09T14:40:59;6.90;;;1.90;;
64500;SDS011;50874;24.150;-110.320;2022-09-09T14:43:28;6.13;;;1.42;;
64500;SDS011;50874;24.150;-110.320;2022-09-09T14:46:03;5.00;;;1.23;;
64500;SDS011;50874;24.150;-110.320;2022-09-09T14:48:31;3.50;;;1.00;;
64500;SDS011;50874;24.150;-110.320;2022-09-09T14:51:06;3.70;;;1.00;;
64500;SDS011;50874;24.150;-110.320;2022-09-09T14:53:38;7.82;;;1.25;;
64500;SDS011;50874;24.150;-110.320;2022-09-09T14:56:06;4.22;;;1.05;;
64500;SDS011;50874;24.150;-110.320;2022-09-09T14:58:34;4.22;;;1.13;;
64500;SDS011;50874;24.150;-110.320;2022-09-09T15:01:05;4.18;;;1.13;;
64500;SDS011;50874;24.150;-110.320;2022-09-09T15:03:35;2.50;;;1.02;;
64500;SDS011;50874;24.150;-110.320;2022-09-09T15:06:09;3.47;;;0.85;;
64500;SDS011;50874;24.150;-110.320;2022-09-09T15:08:37;3.97;;;1.10;;
64500;SDS011;50874;24.150;-110.320;2022-09-09T15:11:06;2.95;;;0.70;;
64500;SDS011;50874;24.150;-110.320;2022-09-09T15:13:36;4.13;;;1.10;;
64500;SDS011;50874;24.150;-110.320;2022-09-09T15:16:11;5.90;;;1.20;;
64500;SDS011;50874;24.150;-110.320;2022-09-09T15:18:42;2.17;;;0.90;;
64500;SDS011;50874;24.150;-110.320;2022-09-09T15:21:14;2.80;;;0.85;;
64500;SDS011;50874;24.150;-110.320;2022-09-09T15:23:42;2.92;;;0.60;;
64500;SDS011;50874;24.150;-110.320;2022-09-09T15:26:09;5.18;;;1.20;;
64500;SDS011;50874;24.150;-110.320;2022-09-09T15:28:39;5.97;;;0.80;;
64500;SDS011;50874;24.150;-110.320;2022-09-09T15:31:09;4.55;;;1.27;;
64500;SDS011;50874;24.150;-110.320;2022-09-09T15:36:41;1.83;;;0.70;;
64500;SDS011;50874;24.150;-110.320;2022-09-09T15:39:10;4.53;;;1.00;;
64500;SDS011;50874;24.150;-110.320;2022-09-09T15:41:41;4.40;;;1.45;;
64500;SDS011;50874;24.150;-110.320;2022-09-09T15:44:09;4.28;;;1.00;;
64500;SDS011;50874;24.150;-110.320;2022-09-09T15:46:42;3.55;;;1.10;;
64500;SDS011;50874;24.150;-110.320;2022-09-09T15:49:14;3.35;;;0.90;;
64500;SDS011;50874;24.150;-110.320;2022-09-09T15:51:47;1.38;;;0.40;;
64500;SDS011;50874;24.150;-110.320;2022-09-09T15:54:21;2.97;;;0.98;;
64500;SDS011;50874;24.150;-110.320;2022-09-09T15:56:56;3.65;;;0.95;;
64500;SDS011;50874;24.150;-110.320;2022-09-09T15:59:25;2.08;;;0.88;;
64500;SDS011;50874;24.150;-110.320;2022-09-09T16:01:53;5.70;;;1.35;;
64500;SDS011;50874;24.150;-110.320;2022-09-09T16:04:20;1.67;;;0.63;;
64500;SDS011;50874;24.150;-110.320;2022-09-09T16:06:49;4.15;;;0.70;;
64500;SDS011;50874;24.150;-110.320;2022-09-09T16:09:17;1.85;;;1.08;;
64500;SDS011;50874;24.150;-110.320;2022-09-09T16:12:06;1.92;;;0.63;;
64500;SDS011;50874;24.150;-110.320;2022-09-09T16:14:37;5.20;;;1.13;;
64500;SDS011;50874;24.150;-110.320;2022-09-09T16:17:04;2.53;;;1.00;;
64500;SDS011;50874;24.150;-110.320;2022-09-09T16:19:31;2.35;;;0.95;;
64500;SDS011;50874;24.150;-110.320;2022-09-09T16:21:59;1.33;;;0.80;;
64500;SDS011;50874;24.150;-110.320;2022-09-09T16:24:26;1.88;;;0.73;;
64500;SDS011;50874;24.150;-110.320;2022-09-09T16:26:54;2.78;;;0.73;;
64500;SDS011;50874;24.150;-110.320;2022-09-09T16:29:20;1.35;;;0.57;;
64500;SDS011;50874;24.150;-110.320;2022-09-09T16:31:48;1.88;;;0.70;;
64500;SDS011;50874;24.150;-110.320;2022-09-09T16:34:16;3.45;;;0.82;;
64500;SDS011;50874;24.150;-110.320;2022-09-09T16:36:43;3.55;;;0.98;;
64500;SDS011;50874;24.150;-110.320;2022-09-09T16:39:12;1.63;;;0.47;;
64500;SDS011;50874;24.150;-110.320;2022-09-09T16:41:40;1.48;;;0.65;;
64500;SDS011;50874;24.150;-110.320;2022-09-09T16:44:10;3.38;;;0.70;;
64500;SDS011;50874;24.150;-110.320;2022-09-09T16:46:39;3.67;;;0.90;;
64500;SDS011;50874;24.150;-110.320;2022-09-09T16:49:08;2.88;;;0.60;;
64500;SDS011;50874;24.150;-110.320;2022-09-09T16:51:40;4.70;;;0.70;;
64500;SDS011;50874;24.150;-110.320;2022-09-09T16:54:12;1.10;;;0.70;;
64500;SDS011;50874;24.150;-110.320;2022-09-09T16:56:45;3.03;;;0.90;;
64500;SDS011;50874;24.150;-110.320;2022-09-09T16:59:14;3.50;;;0.80;;
64500;SDS011;50874;24.150;-110.320;2022-09-09T17:01:46;1.92;;;0.70;;
64500;SDS011;50874;24.150;-110.320;2022-09-09T17:04:18;3.45;;;1.00;;
64500;SDS011;50874;24.150;-110.320;2022-09-09T17:06:52;1.35;;;0.60;;